createdAt,value
2018-12-18T05:00:59.212Z,-1.30
2018-12-18T05:03:21.817Z,-1.40
2018-12-18T05:05:44.405Z,-1.30
2018-12-18T05:08:07.970Z,-1.30
2018-12-18T05:10:30.707Z,-1.40
2018-12-18T05:12:53.257Z,-1.50
2018-12-18T06:01:36.433Z,-1.50
2018-12-18T06:03:59.750Z,-1.50
2018-12-18T06:06:23.847Z,-1.40
2018-12-18T06:08:46.882Z,-1.40
2018-12-18T06:11:09.784Z,-1.40
2018-12-18T06:13:32.845Z,-1.30
2018-12-18T07:02:27.769Z,-2.20
2018-12-18T07:04:50.446Z,-2.30
2018-12-18T07:07:13.160Z,-2.30
2018-12-18T07:09:35.800Z,-2.30
2018-12-18T07:11:58.421Z,-2.40
2018-12-18T07:14:21.001Z,-2.30
2018-12-18T08:00:17.893Z,-1.00
2018-12-18T08:02:40.494Z,-0.90
2018-12-18T08:05:03.345Z,-0.80
2018-12-18T08:07:25.941Z,-0.70
2018-12-18T08:10:04.881Z,-0.70
2018-12-18T08:12:27.496Z,-0.70
2018-12-18T08:14:50.265Z,-0.70
2018-12-18T09:00:29.373Z,0.50
2018-12-18T09:02:51.989Z,0.60
2018-12-18T09:05:14.609Z,0.70
2018-12-18T09:07:37.348Z,0.80
2018-12-18T09:09:59.931Z,0.90
2018-12-18T09:12:22.637Z,1.10
2018-12-18T09:14:51.688Z,1.10
2018-12-18T10:00:29.362Z,10.10
2018-12-18T10:02:52.084Z,10.70
2018-12-18T10:05:14.797Z,11.20
2018-12-18T10:07:37.441Z,11.80
2018-12-18T10:10:01.030Z,11.90
2018-12-18T10:12:29.174Z,12.50
2018-12-18T10:14:51.898Z,13.00
2018-12-18T11:00:35.295Z,16.40
2018-12-18T11:02:57.896Z,15.90
2018-12-18T11:05:20.473Z,15.60
2018-12-18T11:07:43.117Z,16.00
2018-12-18T12:02:30.525Z,10.00
2018-12-18T12:07:16.637Z,9.90
2018-12-18T12:09:39.361Z,9.80
2018-12-18T12:12:01.958Z,9.60
2018-12-18T12:14:24.545Z,9.60
2018-12-18T13:02:45.477Z,17.80
2018-12-18T13:05:08.102Z,17.70
2018-12-18T13:07:30.734Z,17.50
2018-12-18T13:09:53.329Z,17.20
2018-12-18T13:12:15.901Z,16.80
2018-12-18T13:14:38.450Z,16.40
2018-12-18T14:00:17.338Z,7.50
2018-12-18T14:02:39.998Z,7.30
2018-12-18T14:05:02.605Z,7.20
2018-12-18T14:07:25.217Z,7.10
2018-12-18T14:12:47.192Z,6.90
2018-12-18T15:01:28.071Z,4.30
2018-12-18T15:03:50.685Z,4.10
2018-12-18T15:06:13.251Z,3.90
2018-12-18T15:08:35.870Z,3.80
2018-12-18T15:10:59.539Z,3.70
2018-12-18T15:13:22.168Z,3.60
2018-12-18T16:02:04.233Z,1.60
2018-12-18T16:04:26.832Z,1.60
2018-12-18T16:06:49.422Z,1.60
2018-12-18T16:09:12.035Z,1.60
2018-12-18T16:11:34.604Z,1.50
2018-12-18T16:13:57.306Z,1.50
2018-12-18T17:02:36.615Z,2.20
2018-12-18T17:04:59.324Z,2.20
2018-12-18T17:07:21.936Z,2.20
2018-12-18T17:09:44.549Z,2.20
2018-12-18T17:12:07.524Z,2.20
2018-12-18T17:14:30.456Z,2.20
2018-12-18T18:00:19.909Z,2.00
2018-12-18T18:02:43.370Z,2.00
2018-12-18T18:05:11.125Z,2.00
2018-12-18T19:00:16.983Z,1.60
2018-12-18T19:02:39.681Z,1.60
2018-12-18T19:05:07.361Z,1.60
2018-12-18T19:07:30.088Z,1.60
2018-12-18T19:09:52.725Z,1.70
2018-12-18T19:12:15.476Z,1.70
2018-12-18T19:14:38.105Z,1.70
2018-12-18T20:00:20.150Z,1.90
2018-12-18T20:02:42.892Z,1.90
2018-12-18T20:05:06.420Z,1.90
2018-12-18T20:07:29.270Z,2.00
2018-12-18T21:01:22.672Z,1.80
2018-12-18T21:03:45.433Z,1.80
2018-12-18T21:06:08.448Z,1.70
2018-12-18T21:08:31.215Z,1.70
2018-12-18T21:10:54.388Z,1.70
2018-12-18T21:13:23.025Z,1.70
